Time;durP1;ratioP1;P1;durP2;ratioP2;P2;SDS_P1;SDS_P2;PMS_P1;PMS_P2;Temp;Humidity;BMP_temperature;BMP_pressure;BME280_temperature;BME280_humidity;BME280_pressure;Samples;Min_cycle;Max_cycle;Signal;HPM_P1;HPM_P2
2023/12/25 00:02:14;;;;;;;20.60;8.00;;;9.60;59.90;;;;;;7756972;22;20265;-78
2023/12/25 00:05:15;;;;;;;26.23;5.85;;;9.50;59.90;;;;;;7782407;22;20014;-75
2023/12/25 00:08:17;;;;;;;12.95;7.18;;;9.50;60.00;;;;;;7782053;22;20096;-77
2023/12/25 00:11:18;;;;;;;23.80;7.03;;;9.50;60.20;;;;;;7782546;22;20072;-76
2023/12/25 00:14:21;;;;;;;18.67;7.15;;;9.40;60.10;;;;;;7782929;22;20030;-76
2023/12/25 00:17:21;;;;;;;12.88;6.85;;;9.40;60.10;;;;;;7757202;22;20068;-77
2023/12/25 00:20:22;;;;;;;16.70;7.30;;;9.40;60.10;;;;;;7810757;22;19995;-77
2023/12/25 00:23:24;;;;;;;21.63;8.07;;;9.40;60.20;;;;;;7782159;22;20393;-78
2023/12/25 00:26:25;;;;;;;14.63;6.93;;;9.30;60.20;;;;;;7810070;22;19999;-77
2023/12/25 00:29:32;;;;;;;26.52;8.77;;;9.30;60.30;;;;;;7758109;22;20416;-77
2023/12/25 00:32:33;;;;;;;17.48;6.93;;;9.30;60.30;;;;;;7757109;22;20222;-76
2023/12/25 00:35:34;;;;;;;14.48;7.05;;;9.30;60.40;;;;;;7782976;22;20011;-75
2023/12/25 00:38:35;;;;;;;18.13;7.85;;;9.30;60.50;;;;;;7782742;22;20042;-77
2023/12/25 00:41:38;;;;;;;16.00;7.28;;;9.20;60.40;;;;;;7757941;22;19995;-76
2023/12/25 00:44:38;;;;;;;21.25;7.05;;;9.20;60.60;;;;;;7782389;22;20007;-76
2023/12/25 00:47:39;;;;;;;15.23;6.50;;;9.10;60.60;;;;;;7759526;22;20007;-74
2023/12/25 00:50:40;;;;;;;18.73;7.80;;;9.10;60.80;;;;;;7758756;22;20003;-76
2023/12/25 00:53:41;;;;;;;15.27;7.32;;;8.90;61.10;;;;;;7784581;22;20447;-76
2023/12/25 00:56:43;;;;;;;21.27;8.40;;;8.90;61.40;;;;;;7812206;22;20187;-76
2023/12/25 00:59:43;;;;;;;12.95;7.65;;;8.80;61.60;;;;;;7758833;22;20046;-79
2023/12/25 01:02:44;;;;;;;14.55;7.15;;;8.70;62.60;;;;;;7784157;22;20031;-77
2023/12/25 01:05:45;;;;;;;13.85;6.40;;;8.70;62.10;;;;;;7785224;22;20050;-77
2023/12/25 01:08:46;;;;;;;14.68;7.18;;;8.70;62.20;;;;;;7759526;22;20010;-77
2023/12/25 01:11:48;;;;;;;16.23;6.75;;;8.70;62.40;;;;;;7760051;22;20161;-77
2023/12/25 01:14:49;;;;;;;12.52;5.80;;;8.70;62.40;;;;;;7784855;22;20451;-77
2023/12/25 01:17:50;;;;;;;14.70;6.18;;;8.60;62.20;;;;;;7784527;22;20004;-77
2023/12/25 01:20:52;;;;;;;11.57;6.80;;;8.70;62.30;;;;;;7758881;22;19999;-77
2023/12/25 01:23:54;;;;;;;14.10;6.85;;;8.70;62.40;;;;;;7759548;22;20089;-76
2023/12/25 01:26:55;;;;;;;20.58;7.18;;;8.70;62.30;;;;;;7758971;22;20409;-77
2023/12/25 01:29:56;;;;;;;10.70;5.78;;;8.60;62.30;;;;;;7784301;22;20078;-77
2023/12/25 01:32:57;;;;;;;12.27;6.13;;;8.50;62.40;;;;;;7784904;22;20037;-76
2023/12/25 01:35:59;;;;;;;14.40;6.40;;;8.40;62.60;;;;;;7759146;22;20051;-77
2023/12/25 01:38:59;;;;;;;16.60;6.05;;;8.40;62.80;;;;;;7783981;22;20010;-75
2023/12/25 01:42:00;;;;;;;20.33;6.78;;;8.40;62.90;;;;;;7758866;22;20089;-76
2023/12/25 01:45:01;;;;;;;9.90;5.10;;;8.40;63.10;;;;;;7758501;22;20497;-77
2023/12/25 01:48:02;;;;;;;14.25;7.13;;;8.40;63.10;;;;;;7760010;22;20637;-77
2023/12/25 01:51:04;;;;;;;24.92;6.28;;;8.30;63.10;;;;;;7784996;22;20054;-77
2023/12/25 01:54:06;;;;;;;15.35;6.88;;;8.20;63.20;;;;;;7758527;22;20007;-76
2023/12/25 01:57:08;;;;;;;11.30;6.07;;;8.20;63.40;;;;;;7783649;22;20619;-76
2023/12/25 02:00:10;;;;;;;13.38;6.70;;;8.20;63.50;;;;;;7783660;22;20097;-76
2023/12/25 02:03:14;;;;;;;11.25;6.25;;;8.10;64.30;;;;;;7812175;22;20034;-77
2023/12/25 02:06:15;;;;;;;17.75;6.80;;;8.10;63.60;;;;;;7783884;22;20011;-75
2023/12/25 02:09:16;;;;;;;15.10;5.97;;;8.10;63.70;;;;;;7733241;22;20019;-76
2023/12/25 02:12:17;;;;;;;13.63;5.53;;;8.00;63.80;;;;;;7784824;22;19999;-76
2023/12/25 02:15:18;;;;;;;20.50;6.38;;;8.00;64.00;;;;;;7784800;22;20629;-77
2023/12/25 02:18:20;;;;;;;15.98;6.45;;;8.00;64.20;;;;;;7757846;22;19999;-77
2023/12/25 02:21:22;;;;;;;13.48;5.75;;;7.90;64.30;;;;;;7757979;22;20011;-76
2023/12/25 02:24:27;;;;;;;15.98;6.55;;;7.90;64.40;;;;;;7758574;22;20341;-75
2023/12/25 02:27:29;;;;;;;10.63;5.82;;;7.90;64.40;;;;;;7785645;22;20113;-76
2023/12/25 02:30:31;;;;;;;11.77;5.40;;;8.00;64.50;;;;;;7783165;22;19995;-75
2023/12/25 02:33:32;;;;;;;13.60;5.38;;;8.00;64.50;;;;;;7757779;22;20093;-76
2023/12/25 02:36:34;;;;;;;11.57;4.90;;;8.00;64.60;;;;;;7783227;22;20038;-75
2023/12/25 02:39:37;;;;;;;11.93;6.05;;;8.00;64.70;;;;;;7810886;22;20085;-76
2023/12/25 02:42:38;;;;;;;10.20;4.93;;;8.00;64.70;;;;;;7783661;22;20008;-77
2023/12/25 02:45:38;;;;;;;11.18;5.95;;;8.00;64.70;;;;;;7757312;22;20014;-76
2023/12/25 02:48:40;;;;;;;17.35;6.93;;;8.00;64.50;;;;;;7782818;22;20027;-76
2023/12/25 02:51:41;;;;;;;13.65;5.78;;;8.10;64.50;;;;;;7782983;22;20162;-76
2023/12/25 02:54:44;;;;;;;11.30;5.57;;;8.10;64.50;;;;;;7783240;22;21989;-76
2023/12/25 02:57:45;;;;;;;12.55;5.60;;;8.10;64.60;;;;;;7783182;22;19999;-76
2023/12/25 03:00:45;;;;;;;6.70;4.72;;;8.10;64.60;;;;;;7756939;22;20116;-78
2023/12/25 03:03:46;;;;;;;15.00;6.00;;;8.10;64.60;;;;;;7757635;22;20003;-76
2023/12/25 03:06:47;;;;;;;7.88;4.30;;;8.10;64.60;;;;;;7782799;22;20342;-76
2023/12/25 03:09:48;;;;;;;9.65;5.05;;;8.10;64.50;;;;;;7810525;22;20053;-77
2023/12/25 03:12:49;;;;;;;12.73;5.97;;;8.20;64.60;;;;;;7782249;22;20309;-76
2023/12/25 03:15:49;;;;;;;12.68;5.85;;;8.20;64.50;;;;;;7757167;22;20039;-77
2023/12/25 03:18:52;;;;;;;9.30;5.53;;;8.20;64.40;;;;;;7757376;22;20050;-76
2023/12/25 03:21:52;;;;;;;10.27;5.95;;;8.20;64.30;;;;;;7783299;22;20584;-76
2023/12/25 03:24:53;;;;;;;9.80;5.30;;;8.30;64.20;;;;;;7783355;22;20011;-76
2023/12/25 03:27:54;;;;;;;12.68;5.93;;;8.30;64.00;;;;;;7756780;22;20003;-75
2023/12/25 03:30:55;;;;;;;11.40;5.15;;;8.20;63.70;;;;;;7782407;22;20008;-75
2023/12/25 03:33:58;;;;;;;9.57;5.55;;;8.20;63.80;;;;;;7781826;22;20102;-77
2023/12/25 03:36:59;;;;;;;12.95;5.68;;;8.10;63.90;;;;;;7756952;22;20007;-76
2023/12/25 03:40:00;;;;;;;13.77;5.00;;;8.00;64.00;;;;;;7782742;22;20069;-76
2023/12/25 03:43:02;;;;;;;11.45;5.45;;;8.00;64.20;;;;;;7783518;22;20040;-76
2023/12/25 03:46:03;;;;;;;8.02;4.63;;;7.90;64.20;;;;;;7782539;22;20003;-77
2023/12/25 03:49:04;;;;;;;10.75;5.53;;;7.90;64.30;;;;;;7782211;22;20397;-76
2023/12/25 03:52:05;;;;;;;14.82;5.70;;;7.80;64.50;;;;;;7782763;22;20050;-75
2023/12/25 03:55:06;;;;;;;10.10;5.55;;;7.80;64.60;;;;;;7757081;22;20025;-76
2023/12/25 03:58:07;;;;;;;12.65;5.50;;;7.70;64.70;;;;;;7756362;22;20079;-76
2023/12/25 04:01:09;;;;;;;7.63;4.60;;;7.70;64.80;;;;;;7782476;22;20433;-76
2023/12/25 04:04:12;;;;;;;14.27;5.07;;;7.70;65.00;;;;;;7757280;22;20022;-77
2023/12/25 04:07:13;;;;;;;8.20;3.80;;;7.70;65.10;;;;;;7783227;22;20003;-77
2023/12/25 04:10:14;;;;;;;12.13;4.55;;;7.60;65.20;;;;;;7757070;22;20015;-75
2023/12/25 04:13:15;;;;;;;15.93;5.03;;;7.60;65.40;;;;;;7757387;22;20469;-76
2023/12/25 04:16:23;;;;;;;9.20;4.75;;;7.60;65.40;;;;;;7757286;22;20011;-76
2023/12/25 04:19:25;;;;;;;9.55;4.85;;;7.60;65.40;;;;;;7757207;22;20102;-76
2023/12/25 04:22:29;;;;;;;10.73;4.88;;;7.60;65.50;;;;;;7810339;22;20000;-77
2023/12/25 04:25:30;;;;;;;10.02;4.75;;;7.60;65.50;;;;;;7782241;22;20436;-77
2023/12/25 04:28:31;;;;;;;9.23;4.47;;;7.60;65.50;;;;;;7782178;22;20007;-76
2023/12/25 04:31:32;;;;;;;10.85;5.07;;;7.60;65.40;;;;;;7781642;22;20019;-76
2023/12/25 04:34:33;;;;;;;16.60;6.38;;;7.60;65.20;;;;;;7756875;22;20015;-75
2023/12/25 04:37:34;;;;;;;8.77;4.57;;;7.60;65.10;;;;;;7756495;22;20084;-77
2023/12/25 04:40:34;;;;;;;10.68;5.03;;;7.60;65.10;;;;;;7781950;22;20002;-76
2023/12/25 04:43:36;;;;;;;12.48;5.25;;;7.60;65.00;;;;;;7757276;22;20425;-77
2023/12/25 04:46:39;;;;;;;15.00;5.20;;;7.60;64.90;;;;;;7757856;22;20044;-77
2023/12/25 04:49:40;;;;;;;11.60;4.63;;;7.60;64.90;;;;;;7757817;22;20420;-77
2023/12/25 04:52:41;;;;;;;12.55;5.18;;;7.50;65.00;;;;;;7782474;22;20003;-76
2023/12/25 04:55:42;;;;;;;7.15;4.15;;;7.50;65.00;;;;;;7756202;22;20204;-76
2023/12/25 04:58:44;;;;;;;13.43;3.85;;;7.50;65.10;;;;;;7756838;22;20044;-76
2023/12/25 05:01:48;;;;;;;12.40;5.03;;;7.50;65.00;;;;;;7811360;22;19999;-75
2023/12/25 05:04:51;;;;;;;6.88;3.35;;;7.50;65.10;;;;;;7757008;22;20003;-77
2023/12/25 05:07:53;;;;;;;9.80;4.60;;;7.50;65.20;;;;;;7758107;22;20110;-76
2023/12/25 05:10:55;;;;;;;13.45;4.57;;;7.40;65.20;;;;;;7784180;22;20456;-76
2023/12/25 05:13:55;;;;;;;9.48;4.18;;;7.40;65.30;;;;;;7812032;22;20014;-76
2023/12/25 05:16:56;;;;;;;7.50;4.75;;;7.50;65.40;;;;;;7757150;22;20088;-78
2023/12/25 05:19:57;;;;;;;4.72;3.03;;;7.50;65.40;;;;;;7782163;22;20306;-76
2023/12/25 05:22:58;;;;;;;7.88;4.38;;;7.50;65.50;;;;;;7756611;22;20035;-75
2023/12/25 05:25:59;;;;;;;9.20;4.30;;;7.50;65.60;;;;;;7781908;22;20500;-77
2023/12/25 05:29:00;;;;;;;10.10;4.28;;;7.50;65.50;;;;;;7756360;22;20092;-76
2023/12/25 05:32:01;;;;;;;10.85;4.32;;;7.50;65.60;;;;;;7811556;22;20043;-76
2023/12/25 05:35:04;;;;;;;6.18;3.92;;;7.40;65.50;;;;;;7759186;22;20122;-77
2023/12/25 05:38:06;;;;;;;6.63;3.65;;;7.50;65.60;;;;;;7784652;22;20003;-76
2023/12/25 05:41:08;;;;;;;6.68;3.90;;;7.50;65.50;;;;;;7812271;22;20038;-76
2023/12/25 05:44:08;;;;;;;11.10;5.05;;;7.50;65.40;;;;;;7759798;22;20474;-79
2023/12/25 05:47:09;;;;;;;9.32;3.40;;;7.50;65.50;;;;;;7786433;22;20007;-77
2023/12/25 05:50:11;;;;;;;6.22;3.95;;;7.60;65.50;;;;;;7758554;22;20057;-78
2023/12/25 05:53:12;;;;;;;9.20;4.70;;;7.60;65.40;;;;;;7784908;22;20421;-78
2023/12/25 05:56:13;;;;;;;14.13;5.07;;;7.70;65.40;;;;;;7784423;22;20030;-77
2023/12/25 05:59:14;;;;;;;8.55;3.83;;;7.70;65.20;;;;;;7758475;22;19999;-77
2023/12/25 06:02:15;;;;;;;7.25;3.78;;;7.80;65.10;;;;;;7758951;22;20008;-78
2023/12/25 06:05:20;;;;;;;7.93;4.22;;;7.80;64.90;;;;;;7812168;22;20014;-76
2023/12/25 06:08:20;;;;;;;9.63;4.22;;;7.70;64.80;;;;;;7785149;22;20003;-77
2023/12/25 06:11:21;;;;;;;8.50;4.60;;;7.70;64.80;;;;;;7784121;22;20095;-78
2023/12/25 06:14:22;;;;;;;8.85;3.67;;;7.70;64.80;;;;;;7784120;22;20007;-77
2023/12/25 06:17:24;;;;;;;6.80;3.78;;;7.60;64.70;;;;;;7784686;22;20099;-78
2023/12/25 06:20:26;;;;;;;8.20;4.47;;;7.50;64.80;;;;;;7758088;22;20004;-77
2023/12/25 06:23:26;;;;;;;13.98;4.38;;;7.50;65.00;;;;;;7784131;22;20010;-77
2023/12/25 06:26:28;;;;;;;15.57;4.10;;;7.40;65.20;;;;;;7758364;22;20022;-76
2023/12/25 06:29:29;;;;;;;6.43;4.20;;;7.40;65.40;;;;;;7783403;22;20084;-76
2023/12/25 06:32:30;;;;;;;9.55;3.95;;;7.40;65.30;;;;;;7811393;22;20004;-76
2023/12/25 06:35:31;;;;;;;8.60;4.05;;;7.30;65.30;;;;;;7810672;22;20152;-77
2023/12/25 06:38:31;;;;;;;7.07;4.18;;;7.30;65.50;;;;;;7783803;22;20002;-76
2023/12/25 06:41:32;;;;;;;13.27;4.65;;;7.20;65.60;;;;;;7759227;22;20079;-77
2023/12/25 06:44:34;;;;;;;9.18;4.93;;;7.20;65.70;;;;;;7811065;22;20085;-75
2023/12/25 06:47:36;;;;;;;7.07;3.70;;;7.10;65.70;;;;;;7784649;22;20098;-77
2023/12/25 06:50:40;;;;;;;8.60;5.22;;;7.10;65.80;;;;;;7783329;22;20091;-76
2023/12/25 06:53:43;;;;;;;9.20;4.88;;;7.00;65.80;;;;;;7783587;22;20564;-78
2023/12/25 06:56:44;;;;;;;10.80;5.07;;;7.00;65.80;;;;;;7757082;22;20443;-76
2023/12/25 06:59:45;;;;;;;7.65;4.22;;;7.00;65.90;;;;;;7783001;22;19995;-76
2023/12/25 07:02:45;;;;;;;7.88;4.75;;;6.90;66.00;;;;;;7781953;22;20026;-76
2023/12/25 07:05:48;;;;;;;11.68;4.13;;;6.90;66.00;;;;;;7782889;22;20007;-77
2023/12/25 07:08:49;;;;;;;10.70;5.18;;;6.90;66.00;;;;;;7757044;22;20018;-76
2023/12/25 07:11:51;;;;;;;6.90;3.88;;;6.90;66.00;;;;;;7782557;22;20496;-76
2023/12/25 07:14:52;;;;;;;9.70;4.50;;;6.90;66.00;;;;;;7758161;22;20014;-77
2023/12/25 07:17:53;;;;;;;6.85;3.70;;;6.90;66.10;;;;;;7811530;22;19999;-77
2023/12/25 07:20:54;;;;;;;7.65;4.05;;;6.80;66.10;;;;;;7756950;22;20003;-76
2023/12/25 07:23:56;;;;;;;7.07;3.58;;;6.80;67.00;;;;;;7782539;22;20052;-76
2023/12/25 07:26:57;;;;;;;7.72;3.83;;;6.80;66.20;;;;;;7783226;22;20060;-76
2023/12/25 07:29:57;;;;;;;7.20;4.07;;;6.80;66.20;;;;;;7782858;22;20027;-76
2023/12/25 07:32:58;;;;;;;4.75;3.05;;;6.80;66.40;;;;;;7783141;22;20399;-76
2023/12/25 07:36:02;;;;;;;14.48;4.13;;;6.80;66.40;;;;;;7757092;22;20081;-76
2023/12/25 07:39:05;;;;;;;7.07;3.28;;;6.70;66.50;;;;;;7781964;22;20032;-77
2023/12/25 07:42:06;;;;;;;4.50;3.05;;;6.80;66.50;;;;;;7782888;22;20026;-76
2023/12/25 07:45:08;;;;;;;8.93;3.30;;;6.80;66.40;;;;;;7810174;22;20393;-77
2023/12/25 07:48:09;;;;;;;5.20;2.95;;;6.80;66.40;;;;;;7783307;22;20003;-77
2023/12/25 07:51:10;;;;;;;11.32;4.38;;;6.80;66.30;;;;;;7782386;22;20070;-77
2023/12/25 07:54:11;;;;;;;5.30;3.35;;;6.70;66.30;;;;;;7810264;22;20084;-77
2023/12/25 07:57:12;;;;;;;7.90;3.25;;;6.70;66.40;;;;;;7782836;22;20469;-76
2023/12/25 08:00:15;;;;;;;5.65;2.92;;;6.70;66.50;;;;;;7757254;22;20037;-76
2023/12/25 08:03:16;;;;;;;11.48;2.88;;;6.70;66.60;;;;;;7758137;22;20003;-76
2023/12/25 08:06:17;;;;;;;7.32;3.65;;;6.70;66.60;;;;;;7757372;22;20003;-75
2023/12/25 08:09:19;;;;;;;6.35;3.28;;;6.70;66.60;;;;;;7756604;22;20007;-77
2023/12/25 08:12:20;;;;;;;8.93;4.10;;;6.70;66.70;;;;;;7756925;22;20027;-77
2023/12/25 08:15:22;;;;;;;9.82;3.67;;;6.70;66.70;;;;;;7757194;22;20094;-77
2023/12/25 08:18:22;;;;;;;11.20;4.70;;;6.70;66.60;;;;;;7757157;22;20440;-76
2023/12/25 08:21:25;;;;;;;7.32;3.70;;;6.80;66.60;;;;;;7782365;22;20011;-77
2023/12/25 08:24:26;;;;;;;7.47;4.35;;;6.80;66.50;;;;;;7782636;22;20003;-78
2023/12/25 08:27:27;;;;;;;10.10;3.60;;;6.80;66.40;;;;;;7757065;22;20010;-78
2023/12/25 08:30:27;;;;;;;7.43;3.83;;;6.90;66.40;;;;;;7779299;22;20009;-77
2023/12/25 08:33:28;;;;;;;7.95;4.57;;;6.90;66.30;;;;;;7756746;22;20011;-78
2023/12/25 08:36:29;;;;;;;10.57;4.10;;;7.00;66.30;;;;;;7781915;22;20489;-78
2023/12/25 08:39:31;;;;;;;6.88;3.45;;;7.10;66.10;;;;;;7809636;22;20079;-78
2023/12/25 08:42:32;;;;;;;7.88;5.03;;;7.10;65.90;;;;;;7782033;22;20094;-77
2023/12/25 08:45:32;;;;;;;11.18;4.50;;;7.20;65.80;;;;;;7756647;22;20086;-78
2023/12/25 08:48:33;;;;;;;9.25;4.75;;;7.30;65.90;;;;;;7782317;22;20010;-77
2023/12/25 08:51:39;;;;;;;9.95;4.38;;;7.40;65.80;;;;;;7757416;22;20352;-78
2023/12/25 08:54:40;;;;;;;9.75;4.78;;;7.50;65.70;;;;;;7756837;22;20025;-77
2023/12/25 08:57:42;;;;;;;12.65;3.78;;;7.60;65.40;;;;;;7782484;22;20090;-77
2023/12/25 09:00:44;;;;;;;8.02;3.55;;;7.80;65.20;;;;;;7781814;22;20136;-76
2023/12/25 09:03:45;;;;;;;8.80;4.03;;;7.90;65.10;;;;;;7756701;22;20043;-75
2023/12/25 09:06:46;;;;;;;12.05;3.88;;;8.00;64.90;;;;;;7756763;22;20003;-76
2023/12/25 09:09:46;;;;;;;8.25;4.13;;;8.10;64.60;;;;;;7757878;22;20546;-77
2023/12/25 09:12:48;;;;;;;8.23;3.90;;;8.20;64.40;;;;;;7758134;22;20090;-76
2023/12/25 09:15:50;;;;;;;6.53;4.20;;;8.30;64.30;;;;;;7784173;22;20090;-76
2023/12/25 09:18:51;;;;;;;6.57;3.80;;;8.40;63.90;;;;;;7811888;22;20037;-81
2023/12/25 09:21:52;;;;;;;9.25;3.83;;;8.50;63.60;;;;;;7759225;22;20003;-77
2023/12/25 09:25:18;;;;;;;4.82;2.70;;;8.60;63.30;;;;;;7811906;22;20007;-77
2023/12/25 09:28:20;;;;;;;8.18;3.47;;;8.50;63.00;;;;;;7758117;22;20011;-76
2023/12/25 09:31:20;;;;;;;10.88;5.10;;;8.50;62.80;;;;;;7782461;22;20056;-76
2023/12/25 09:34:21;;;;;;;14.35;3.75;;;8.50;62.80;;;;;;7810950;22;20404;-76
2023/12/25 09:37:25;;;;;;;11.10;4.38;;;8.60;63.00;;;;;;7811317;22;20011;-75
2023/12/25 09:40:26;;;;;;;7.93;5.18;;;8.70;63.00;;;;;;7757788;22;20281;-75
2023/12/25 09:43:31;;;;;;;7.63;4.90;;;8.70;62.60;;;;;;7758962;22;20078;-77
2023/12/25 09:46:32;;;;;;;10.68;3.92;;;8.80;62.60;;;;;;7783140;22;20018;-76
2023/12/25 09:49:38;;;;;;;7.75;4.57;;;8.90;62.70;;;;;;7757707;22;20006;-76
2023/12/25 09:52:40;;;;;;;11.27;5.20;;;8.90;62.70;;;;;;7783599;22;19999;-77
2023/12/25 09:55:41;;;;;;;9.68;4.88;;;9.00;62.60;;;;;;7783203;22;20403;-77
2023/12/25 09:58:45;;;;;;;8.85;3.83;;;9.20;63.00;;;;;;7810910;22;20647;-75
2023/12/25 10:01:49;;;;;;;8.32;4.40;;;9.50;62.70;;;;;;7784983;22;20109;-75
2023/12/25 10:04:50;;;;;;;7.88;4.63;;;9.90;61.80;;;;;;7759167;22;20417;-77
2023/12/25 10:07:51;;;;;;;6.95;3.70;;;10.30;61.00;;;;;;7783493;22;20078;-76
2023/12/25 10:10:55;;;;;;;10.77;4.10;;;10.60;60.00;;;;;;7782973;22;20052;-76
2023/12/25 10:13:56;;;;;;;4.70;3.22;;;10.90;58.90;;;;;;7782726;22;20003;-77
2023/12/25 10:16:57;;;;;;;5.88;3.10;;;11.00;58.30;;;;;;7810360;22;20031;-77
2023/12/25 10:20:00;;;;;;;6.35;4.00;;;11.00;57.80;;;;;;7783806;22;20007;-77
2023/12/25 10:23:13;;;;;;;7.15;4.40;;;11.10;57.80;;;;;;7782592;22;20688;-77
2023/12/25 10:26:27;;;;;;;11.52;4.80;;;11.20;57.60;;;;;;7782542;22;20064;-77
2023/12/25 10:29:35;;;;;;;8.88;3.65;;;11.30;57.20;;;;;;7810948;22;20082;-76
2023/12/25 10:32:37;;;;;;;10.27;4.70;;;11.50;57.10;;;;;;7783046;22;20149;-76
2023/12/25 10:35:41;;;;;;;11.90;4.22;;;11.80;56.90;;;;;;7783054;22;20022;-77
2023/12/25 10:38:44;;;;;;;12.00;4.20;;;12.10;56.50;;;;;;7782398;22;20010;-76
2023/12/25 10:41:45;;;;;;;10.55;5.13;;;12.30;55.60;;;;;;7811527;22;20062;-76
2023/12/25 10:44:49;;;;;;;13.63;5.38;;;12.60;55.10;;;;;;7782827;22;20045;-77
2023/12/25 10:47:53;;;;;;;10.30;3.70;;;12.80;54.60;;;;;;7783493;22;19999;-75
2023/12/25 10:50:56;;;;;;;19.38;5.35;;;13.30;53.70;;;;;;7781859;22;20003;-75
2023/12/25 10:54:04;;;;;;;14.88;7.40;;;13.70;52.80;;;;;;7781908;22;20220;-76
2023/12/25 10:57:07;;;;;;;6.38;3.83;;;14.20;51.40;;;;;;7756600;22;20018;-77
2023/12/25 11:00:10;;;;;;;6.82;3.88;;;14.50;50.30;;;;;;7782291;22;19999;-74
2023/12/25 11:03:14;;;;;;;9.75;4.35;;;15.00;49.60;;;;;;7810023;22;20003;-76
2023/12/25 11:06:15;;;;;;;9.63;4.75;;;15.50;48.10;;;;;;7809624;22;20074;-75
2023/12/25 11:09:20;;;;;;;10.82;4.20;;;15.80;47.10;;;;;;7756124;22;20007;-75
2023/12/25 11:12:21;;;;;;;10.73;3.90;;;16.20;46.40;;;;;;7782556;22;20007;-78
2023/12/25 11:15:24;;;;;;;6.05;3.85;;;16.80;45.10;;;;;;7781272;22;20015;-75
2023/12/25 11:18:26;;;;;;;8.77;3.95;;;17.20;44.00;;;;;;7757174;22;19995;-77
2023/12/25 11:21:32;;;;;;;9.57;3.83;;;17.60;43.00;;;;;;7783099;22;20083;-76
2023/12/25 11:24:33;;;;;;;7.28;3.58;;;18.00;42.30;;;;;;7782167;22;19995;-74
2023/12/25 11:27:36;;;;;;;7.82;4.22;;;18.50;41.30;;;;;;7810657;22;20041;-77
2023/12/25 11:30:38;;;;;;;6.15;4.30;;;18.60;40.60;;;;;;7782043;22;20118;-75
2023/12/25 11:33:46;;;;;;;7.30;4.05;;;18.90;40.70;;;;;;7756632;22;20018;-76
2023/12/25 11:36:56;;;;;;;8.20;4.53;;;19.40;39.40;;;;;;7757553;22;20011;-76
2023/12/25 11:40:02;;;;;;;10.63;5.30;;;19.40;38.70;;;;;;7781652;22;20006;-77
2023/12/25 11:43:07;;;;;;;9.82;5.03;;;19.40;39.10;;;;;;7781079;22;20022;-77
2023/12/25 11:46:14;;;;;;;9.00;5.00;;;18.70;40.00;;;;;;7756016;22;20003;-77
2023/12/25 11:49:15;;;;;;;9.05;4.82;;;17.90;40.70;;;;;;7755587;22;20019;-76
2023/12/25 11:52:42;;;;;;;12.18;4.40;;;17.20;42.10;;;;;;7756207;22;20441;-76
2023/12/25 11:55:43;;;;;;;20.85;5.45;;;16.70;43.70;;;;;;7755890;22;20150;-76
2023/12/25 11:58:45;;;;;;;10.77;4.25;;;16.00;44.30;;;;;;7780936;22;20102;-77
2023/12/25 12:01:47;;;;;;;7.38;4.20;;;15.60;45.00;;;;;;7756429;22;20007;-75
2023/12/25 12:04:48;;;;;;;10.45;3.88;;;15.20;45.80;;;;;;7756293;22;20025;-76
2023/12/25 12:07:50;;;;;;;9.13;3.88;;;14.90;46.40;;;;;;7781486;22;20025;-76
2023/12/25 12:10:51;;;;;;;5.68;3.03;;;14.70;46.80;;;;;;7756390;22;20452;-77
2023/12/25 12:13:52;;;;;;;11.10;3.97;;;14.50;47.30;;;;;;7781518;22;20394;-75
2023/12/25 12:16:53;;;;;;;6.57;2.95;;;14.30;47.60;;;;;;7755748;22;20148;-77
2023/12/25 12:19:54;;;;;;;8.43;4.45;;;14.20;47.70;;;;;;7781894;22;20231;-77
2023/12/25 12:22:56;;;;;;;10.68;3.08;;;14.10;47.90;;;;;;7782133;22;20120;-76
2023/12/25 12:26:00;;;;;;;6.97;3.50;;;14.00;47.90;;;;;;7809763;22;20004;-77
2023/12/25 12:29:01;;;;;;;7.40;2.72;;;13.90;48.00;;;;;;7781679;22;20078;-76
2023/12/25 12:32:03;;;;;;;5.50;3.55;;;13.80;48.00;;;;;;7755605;22;20397;-76
2023/12/25 12:35:05;;;;;;;6.03;3.03;;;13.60;48.10;;;;;;7782215;22;20089;-76
2023/12/25 12:38:06;;;;;;;5.57;2.88;;;13.50;48.30;;;;;;7809423;22;20390;-77
2023/12/25 12:41:07;;;;;;;4.93;2.38;;;13.50;48.40;;;;;;7756413;22;20124;-76
2023/12/25 12:44:07;;;;;;;4.30;1.75;;;13.50;47.90;;;;;;7812479;22;20129;-76
2023/12/25 12:47:09;;;;;;;3.97;1.67;;;13.40;47.50;;;;;;7783406;22;20011;-76
2023/12/25 12:50:12;;;;;;;2.88;1.88;;;13.40;47.20;;;;;;7812092;22;20027;-77
2023/12/25 12:53:13;;;;;;;4.53;2.22;;;13.40;47.10;;;;;;7783863;22;20541;-77
2023/12/25 12:56:15;;;;;;;3.90;1.85;;;13.50;47.10;;;;;;7784195;22;20394;-77
2023/12/25 12:59:19;;;;;;;3.97;1.63;;;13.40;46.80;;;;;;7759811;22;20009;-76
2023/12/25 13:02:22;;;;;;;2.55;1.88;;;13.50;46.90;;;;;;7785297;22;20491;-78
2023/12/25 13:05:23;;;;;;;3.20;2.20;;;13.50;47.10;;;;;;7784271;22;20003;-75
2023/12/25 13:08:26;;;;;;;4.38;2.20;;;13.60;47.20;;;;;;7758559;22;20418;-77
2023/12/25 13:11:27;;;;;;;6.65;2.20;;;13.60;47.50;;;;;;7785113;22;20067;-76
2023/12/25 13:14:28;;;;;;;6.78;2.63;;;13.60;47.60;;;;;;7758973;22;20008;-77
2023/12/25 13:17:29;;;;;;;5.53;2.42;;;13.70;47.70;;;;;;7759018;22;20089;-76
2023/12/25 13:20:31;;;;;;;8.18;2.75;;;13.70;47.90;;;;;;7813147;22;20003;-77
2023/12/25 13:23:32;;;;;;;8.55;2.92;;;13.80;47.90;;;;;;7758196;22;20526;-77
2023/12/25 13:26:33;;;;;;;4.75;1.92;;;13.80;47.90;;;;;;7784429;22;20002;-77
2023/12/25 13:29:34;;;;;;;3.83;2.00;;;13.90;47.90;;;;;;7784132;22;20010;-77
2023/12/25 13:32:36;;;;;;;5.72;1.65;;;13.90;47.80;;;;;;7784600;22;20019;-76
2023/12/25 13:35:37;;;;;;;4.55;1.70;;;13.90;47.80;;;;;;7784370;22;20018;-77
2023/12/25 13:38:38;;;;;;;4.53;2.28;;;13.90;47.40;;;;;;7811902;22;20038;-77
2023/12/25 13:41:39;;;;;;;2.40;1.33;;;13.90;46.80;;;;;;7733830;22;20015;-77
2023/12/25 13:44:40;;;;;;;2.95;1.65;;;13.90;46.40;;;;;;7784087;22;20064;-75
2023/12/25 13:47:40;;;;;;;3.17;1.98;;;14.00;46.00;;;;;;7758722;22;20562;-75
2023/12/25 13:50:41;;;;;;;2.67;1.17;;;14.00;46.20;;;;;;7786459;22;20242;-76
2023/12/25 13:53:44;;;;;;;1.88;1.30;;;14.00;46.30;;;;;;7812399;22;20010;-77
2023/12/25 13:56:44;;;;;;;5.05;2.15;;;14.10;46.50;;;;;;7784799;22;20087;-77
2023/12/25 13:59:46;;;;;;;4.95;2.40;;;14.10;46.50;;;;;;7811495;22;19995;-77
2023/12/25 14:02:49;;;;;;;6.75;2.50;;;14.20;46.70;;;;;;7758953;22;20007;-78
2023/12/25 14:05:51;;;;;;;4.05;2.45;;;14.20;46.70;;;;;;7758749;22;20160;-76
2023/12/25 14:08:52;;;;;;;8.05;2.70;;;14.20;46.70;;;;;;7783801;22;20389;-77
2023/12/25 14:11:52;;;;;;;2.78;1.52;;;14.20;46.70;;;;;;7812261;22;20090;-78
2023/12/25 14:14:53;;;;;;;4.85;1.80;;;14.30;46.80;;;;;;7759654;22;19999;-75
2023/12/25 14:17:54;;;;;;;9.38;2.35;;;14.30;46.70;;;;;;7758167;22;20004;-79
2023/12/25 14:20:57;;;;;;;3.72;1.85;;;14.30;46.80;;;;;;7759272;22;20156;-79
2023/12/25 14:23:58;;;;;;;8.35;1.73;;;14.30;46.80;;;;;;7785583;22;20003;-78
2023/12/25 14:26:59;;;;;;;3.05;1.77;;;14.20;47.40;;;;;;7757953;22;20397;-76
2023/12/25 14:29:59;;;;;;;2.97;1.75;;;14.20;46.80;;;;;;7783899;22;20003;-77
2023/12/25 14:33:00;;;;;;;3.25;1.70;;;14.20;46.80;;;;;;7810184;22;20003;-76
2023/12/25 14:36:01;;;;;;;3.35;1.75;;;14.20;46.80;;;;;;7758081;22;20062;-75
2023/12/25 14:39:03;;;;;;;3.58;1.80;;;14.20;47.00;;;;;;7784596;22;19999;-76
2023/12/25 14:42:06;;;;;;;2.45;1.63;;;14.10;47.20;;;;;;7760312;22;20055;-77
2023/12/25 14:45:09;;;;;;;3.88;2.05;;;14.20;47.40;;;;;;7811709;22;20037;-76
2023/12/25 14:48:10;;;;;;;3.42;1.92;;;14.10;47.50;;;;;;7783974;22;20338;-75
2023/12/25 14:51:11;;;;;;;2.97;1.42;;;14.20;47.60;;;;;;7782828;22;20052;-75
2023/12/25 14:54:12;;;;;;;3.33;1.88;;;14.10;47.70;;;;;;7784432;22;20007;-76
2023/12/25 14:57:14;;;;;;;3.17;2.00;;;14.10;47.90;;;;;;7757448;22;20015;-76
2023/12/25 15:00:15;;;;;;;5.78;2.47;;;14.10;48.00;;;;;;7782486;22;20005;-78
2023/12/25 15:03:16;;;;;;;7.18;2.65;;;14.10;48.20;;;;;;7782276;22;20493;-77
2023/12/25 15:06:19;;;;;;;5.65;2.55;;;14.10;48.30;;;;;;7757828;22;19999;-76
2023/12/25 15:09:20;;;;;;;4.07;2.17;;;14.10;48.30;;;;;;7810187;22;19999;-76
2023/12/25 15:12:20;;;;;;;7.78;2.15;;;14.10;48.40;;;;;;7808694;22;19996;-76
2023/12/25 15:15:21;;;;;;;6.57;2.70;;;14.00;48.40;;;;;;7783269;22;20015;-77
2023/12/25 15:18:22;;;;;;;6.60;2.85;;;14.10;48.60;;;;;;7788124;22;20031;-76
2023/12/25 15:21:23;;;;;;;5.68;2.40;;;14.10;48.60;;;;;;7784333;22;20330;-77
2023/12/25 15:24:25;;;;;;;9.55;2.60;;;14.00;48.60;;;;;;7782425;22;20020;-76
2023/12/25 15:27:26;;;;;;;3.63;2.13;;;14.00;48.70;;;;;;7757672;22;20014;-76
2023/12/25 15:30:27;;;;;;;3.17;1.90;;;14.00;48.60;;;;;;7783668;22;20001;-76
2023/12/25 15:33:28;;;;;;;3.75;1.88;;;14.00;48.50;;;;;;7783258;22;20083;-75
2023/12/25 15:36:29;;;;;;;5.75;2.40;;;13.90;48.60;;;;;;7783612;22;20015;-76
2023/12/25 15:39:31;;;;;;;8.35;2.40;;;13.90;48.60;;;;;;7756445;22;19999;-79
2023/12/25 15:42:33;;;;;;;5.35;2.22;;;13.80;48.60;;;;;;7758027;22;20348;-76
2023/12/25 15:45:35;;;;;;;7.88;3.00;;;13.80;48.70;;;;;;7810941;22;20025;-77
2023/12/25 15:48:36;;;;;;;3.20;1.65;;;13.80;48.80;;;;;;7782333;22;20336;-77